Thursday, March 23, 2017, 12:22 AM EDT

KRDG, Reading Regional Airport

Location: Reading, PA, United States Lat: 40.367
Local Time: 12:22 AM EDT ( 4:22 GMT) Lon: -75.967
Time Zone: US/Eastern Elev: 344 ft

Show me the last for .
Show Decoded

2017-03-22 23:54 METAR KRDG 230354Z 01004KT 10SM CLR M03/M16 A3048 RMK AO2 SLP331 T10331156 =
2017-03-22 22:54 METAR KRDG 230254Z 36003KT 10SM CLR M03/M16 A3047 RMK AO2 SLP326 T10281156 51025
                 =
2017-03-22 21:54 METAR KRDG 230154Z AUTO 35011KT 10SM CLR M02/M17 A3045 RMK AO2 SLP318 T10171172
                 =
2017-03-22 20:54 METAR KRDG 230054Z AUTO 35010KT 10SM CLR M02/M17 A3042 RMK AO2 SLP308 T10171167
                 =
2017-03-22 19:54 METAR KRDG 222354Z AUTO 33022G26KT 10SM CLR M01/M18 A3039 RMK AO2 PK WND
                 34026/2353 SLP300 T10061178 10033 21006 51031 =
2017-03-22 18:54 METAR KRDG 222254Z AUTO 34017KT 10SM CLR 01/M17 A3036 RMK AO2 PK WND 33027/2208
                 SLP290 T00061167 =
2017-03-22 17:54 METAR KRDG 222154Z AUTO 34014G26KT 10SM CLR 02/M16 A3033 RMK AO2 PK WND
                 33026/2147 SLP279 T00171161 =
2017-03-22 16:54 METAR KRDG 222054Z 33012G23KT 10SM CLR 02/M16 A3030 RMK AO2 PK WND 32030/2007
                 SLP267 T00221156 53013 =
2017-03-22 15:54 METAR KRDG 221954Z 32018G29KT 10SM CLR 03/M15 A3029 RMK AO2 PK WND 32033/1909
                 SLP263 T00281150 =
2017-03-22 14:54 METAR KRDG 221854Z 31024KT 10SM CLR 03/M14 A3027 RMK AO2 PK WND 32030/1825
                 SLP256 T00281139 =
2017-03-22 13:54 METAR KRDG 221754Z 33015G28KT 10SM CLR 02/M13 A3026 RMK AO2 PK WND 31030/1715
                 SLP254 T00221133 10028 20011 51019 =
2017-03-22 12:54 METAR KRDG 221654Z 35015KT 10SM CLR 02/M13 A3026 RMK AO2 PK WND 32031/1639
                 SLP253 T00221133 =
2017-03-22 11:54 METAR KRDG 221554Z 32025G33KT 10SM CLR 02/M14 A3024 RMK AO2 PK WND 30033/1517
                 SLP246 T00171139 =
2017-03-22 10:54 METAR KRDG 221454Z 32023G31KT 10SM CLR 02/M12 A3020 RMK AO2 PK WND 32032/1407
                 SLP234 T00171117 51033 =
2017-03-22 09:54 METAR KRDG 221354Z 32022G31KT 10SM CLR 02/M11 A3018 RMK AO2 PK WND 36038/1326
                 SLP227 T00171111 =
2017-03-22 08:54 METAR KRDG 221254Z 32026G34KT 10SM SCT050 01/M08 A3014 RMK AO2 PK WND 32034/1247
                 SLP215 T00111083 =
2017-03-22 07:54 METAR KRDG 221154Z 34013G18KT 10SM FEW085 02/M05 A3011 RMK AO2 PK WND 32034/1140
                 SLP201 T00171050 10072 20017 53048 =
2017-03-22 06:54 METAR KRDG 221054Z 31011G17KT 10SM CLR 02/M06 A3005 RMK AO2 PK WND 35026/0955
                 SLP180 T00221061 =
2017-03-22 05:54 METAR KRDG 220954Z 33016G24KT 10SM FEW060 03/M05 A3002 RMK AO2 PK WND 32027/0939
                 SLP170 T00331050 =
2017-03-22 04:54 METAR KRDG 220854Z AUTO 32012KT 10SM FEW065 05/M02 A2996 RMK AO2 SLP152
                 T00501022 53022 =
2017-03-22 03:54 METAR KRDG 220754Z AUTO 33011KT 10SM CLR 07/M03 A2992 RMK AO2 SLP139 T00671033 =
2017-03-22 02:54 METAR KRDG 220654Z AUTO 28004KT 10SM BKN080 05/M03 A2991 RMK AO2 SLP133
                 T00501028 =
2017-03-22 01:54 METAR KRDG 220554Z AUTO 25004KT 10SM FEW080 07/M01 A2990 RMK AO2 SLP129
                 T00721006 10111 20050 51007 =
2017-03-22 00:54 METAR KRDG 220454Z AUTO 00000KT 10SM SCT090 08/01 A2989 RMK AO2 SLP128 T00830006
                 401390028 =

Support USWX by starting your Amazon purchase here.